createdAt,value
2024-03-14T00:02:22.750Z,6.43
2024-03-14T00:05:27.953Z,6.65
2024-03-14T00:08:31.192Z,7.28
2024-03-14T00:11:34.284Z,6.75
2024-03-14T00:14:39.779Z,6.33
2024-03-14T00:17:42.701Z,7.10
2024-03-14T00:20:45.595Z,7.20
2024-03-14T00:23:48.944Z,7.30
2024-03-14T00:26:52.031Z,6.60
2024-03-14T00:29:57.165Z,7.33
2024-03-14T00:33:02.248Z,5.80
2024-03-14T00:36:06.083Z,7.65
2024-03-14T00:39:09.451Z,6.07
2024-03-14T00:42:12.490Z,6.70
2024-03-14T00:45:17.023Z,6.77
2024-03-14T00:48:20.365Z,5.90
2024-03-14T00:51:23.632Z,6.32
2024-03-14T00:54:27.435Z,6.03
2024-03-14T00:57:31.496Z,6.28
2024-03-14T01:00:34.800Z,6.67
2024-03-14T01:03:38.775Z,5.77
2024-03-14T01:06:42.122Z,7.75
2024-03-14T01:09:44.986Z,6.90
2024-03-14T01:12:47.954Z,6.85
2024-03-14T01:15:50.956Z,7.07
2024-03-14T01:18:53.896Z,7.67
2024-03-14T01:21:57.115Z,6.32
2024-03-14T01:25:00.338Z,7.32
2024-03-14T01:28:03.409Z,6.85
2024-03-14T01:31:06.695Z,6.93
2024-03-14T01:34:09.857Z,7.20
2024-03-14T01:37:12.865Z,7.35
2024-03-14T01:40:16.486Z,6.50
2024-03-14T01:43:19.908Z,7.38
2024-03-14T01:46:23.154Z,6.77
2024-03-14T01:49:26.301Z,5.67
2024-03-14T01:52:29.929Z,6.93
2024-03-14T01:55:33.543Z,6.82
2024-03-14T01:58:39.866Z,7.47
2024-03-14T02:01:43.163Z,7.90
2024-03-14T02:05:06.781Z,7.30
2024-03-14T02:08:10.705Z,6.38
2024-03-14T02:11:14.223Z,6.07
2024-03-14T02:14:17.515Z,7.20
2024-03-14T02:17:20.606Z,7.17
2024-03-14T02:20:23.511Z,6.50
2024-03-14T02:23:26.388Z,7.03
2024-03-14T02:26:29.510Z,6.35
2024-03-14T02:29:32.982Z,5.78
2024-03-14T02:32:36.480Z,7.40
2024-03-14T02:35:40.741Z,5.93
2024-03-14T02:38:43.796Z,6.28
2024-03-14T02:41:46.830Z,6.38
2024-03-14T02:44:50.079Z,6.00
2024-03-14T02:47:53.323Z,6.30
2024-03-14T02:50:56.287Z,5.27
2024-03-14T02:54:01.101Z,5.15
2024-03-14T02:57:04.153Z,6.13
2024-03-14T03:00:21.574Z,5.78
2024-03-14T03:03:24.547Z,5.23
2024-03-14T03:06:28.083Z,6.33
2024-03-14T03:09:31.347Z,4.80
2024-03-14T03:12:41.149Z,6.93
2024-03-14T03:15:44.452Z,5.13
2024-03-14T03:18:47.427Z,5.97
2024-03-14T03:21:50.286Z,5.90
2024-03-14T03:24:53.562Z,6.53
2024-03-14T03:27:56.596Z,6.45
2024-03-14T03:30:59.739Z,6.70
2024-03-14T03:34:03.159Z,5.63
2024-03-14T03:37:07.001Z,5.97
2024-03-14T03:40:16.429Z,5.80
2024-03-14T03:43:20.010Z,5.85
2024-03-14T03:46:23.076Z,5.97
2024-03-14T03:49:29.456Z,6.07
2024-03-14T03:52:32.778Z,5.90
2024-03-14T03:55:38.909Z,5.25
2024-03-14T03:58:44.299Z,6.85
2024-03-14T04:01:48.078Z,6.60
2024-03-14T04:04:50.906Z,5.97
2024-03-14T04:07:55.081Z,5.40
2024-03-14T04:10:58.297Z,5.45
2024-03-14T04:14:01.220Z,5.45
2024-03-14T04:17:06.043Z,5.43
2024-03-14T04:20:12.672Z,5.30
2024-03-14T04:23:16.862Z,5.83
2024-03-14T04:26:20.125Z,5.05
2024-03-14T04:29:23.197Z,5.93
2024-03-14T04:32:26.424Z,5.20
2024-03-14T04:35:29.513Z,5.20
2024-03-14T04:38:33.959Z,5.40
2024-03-14T04:41:37.055Z,5.95
2024-03-14T04:44:41.020Z,5.85
2024-03-14T04:47:45.868Z,5.22
2024-03-14T04:50:49.602Z,5.57
2024-03-14T04:53:52.537Z,5.33
2024-03-14T04:56:55.688Z,5.43
2024-03-14T04:59:58.879Z,5.18
2024-03-14T05:03:02.205Z,4.07
2024-03-14T05:06:05.663Z,4.53
2024-03-14T05:09:09.484Z,4.23
2024-03-14T05:12:12.509Z,4.60
2024-03-14T05:15:16.751Z,4.28
2024-03-14T05:18:20.244Z,4.88
2024-03-14T05:21:23.203Z,5.40
2024-03-14T05:24:26.560Z,4.40
2024-03-14T05:27:29.852Z,4.72
2024-03-14T05:30:32.856Z,4.47
2024-03-14T05:33:37.282Z,4.68
2024-03-14T05:36:40.638Z,4.93
2024-03-14T05:39:44.143Z,5.33
2024-03-14T05:42:48.365Z,3.65
2024-03-14T05:45:52.269Z,4.32
2024-03-14T05:48:55.462Z,3.97
2024-03-14T05:51:59.066Z,4.10
2024-03-14T05:55:03.746Z,3.63
2024-03-14T05:58:09.723Z,3.95
2024-03-14T06:01:16.013Z,3.58
2024-03-14T06:04:19.227Z,2.97
2024-03-14T06:07:23.406Z,3.10
2024-03-14T06:10:26.863Z,3.43
2024-03-14T06:13:30.032Z,3.67
2024-03-14T06:16:33.121Z,3.97
2024-03-14T06:19:36.105Z,3.20
2024-03-14T06:22:45.509Z,3.13
2024-03-14T06:25:48.732Z,3.17
2024-03-14T06:28:55.525Z,3.60
2024-03-14T06:32:00.000Z,3.10
2024-03-14T06:35:04.864Z,3.28
2024-03-14T06:38:07.780Z,2.67
2024-03-14T06:41:10.925Z,2.77
2024-03-14T06:44:15.855Z,2.65
2024-03-14T06:47:21.508Z,3.20
2024-03-14T06:50:25.340Z,3.40
2024-03-14T06:53:28.464Z,3.77
2024-03-14T06:56:33.043Z,3.00
2024-03-14T06:59:36.020Z,2.80
2024-03-14T07:02:44.905Z,3.75
2024-03-14T07:05:48.558Z,2.53
2024-03-14T07:08:57.611Z,2.70
2024-03-14T07:12:01.055Z,2.57
2024-03-14T07:15:07.078Z,2.63
2024-03-14T07:18:12.390Z,2.90
2024-03-14T07:21:18.063Z,2.53
2024-03-14T07:24:24.754Z,2.63
2024-03-14T07:27:29.321Z,2.67
2024-03-14T07:30:36.203Z,2.95
2024-03-14T07:33:40.577Z,2.50
2024-03-14T07:36:46.210Z,2.65
2024-03-14T07:39:54.614Z,2.72
2024-03-14T07:42:57.730Z,3.47
2024-03-14T07:46:03.488Z,4.68
2024-03-14T07:49:07.245Z,3.60
2024-03-14T07:52:11.340Z,3.22
2024-03-14T07:55:17.817Z,2.87
2024-03-14T07:58:23.655Z,3.23
2024-03-14T08:01:29.515Z,3.13
2024-03-14T08:04:34.156Z,3.65
2024-03-14T08:07:41.305Z,3.50
2024-03-14T08:10:48.063Z,3.08
2024-03-14T08:13:52.496Z,2.87
2024-03-14T08:17:08.473Z,3.25
2024-03-14T08:20:27.424Z,3.28
2024-03-14T08:23:35.311Z,3.58
2024-03-14T08:26:38.977Z,3.10
2024-03-14T08:29:42.866Z,3.77
2024-03-14T08:32:46.021Z,3.50
2024-03-14T08:35:49.042Z,3.42
2024-03-14T08:38:52.507Z,3.30
2024-03-14T08:41:55.901Z,3.95
2024-03-14T08:45:00.309Z,4.17
2024-03-14T08:48:09.393Z,3.47
2024-03-14T08:51:14.474Z,3.60
2024-03-14T08:54:23.669Z,3.53
2024-03-14T08:57:27.325Z,4.45
2024-03-14T09:00:31.492Z,3.73
2024-03-14T09:03:35.225Z,3.50
2024-03-14T09:06:38.313Z,4.03
2024-03-14T09:09:42.086Z,3.58
2024-03-14T09:12:46.626Z,3.92
2024-03-14T09:15:52.887Z,3.57
2024-03-14T09:19:20.701Z,3.72
2024-03-14T09:22:23.764Z,3.83
2024-03-14T09:25:30.295Z,4.03
2024-03-14T09:28:33.232Z,4.03
2024-03-14T09:31:36.677Z,3.40
2024-03-14T09:34:39.978Z,4.13
2024-03-14T09:37:45.831Z,3.58
2024-03-14T09:40:49.263Z,3.28
2024-03-14T09:43:53.295Z,4.05
2024-03-14T09:47:12.118Z,3.80
2024-03-14T09:50:21.510Z,3.70
2024-03-14T09:53:28.414Z,3.53
2024-03-14T09:56:31.454Z,3.60
2024-03-14T09:59:35.864Z,3.80
2024-03-14T10:02:41.513Z,3.60
2024-03-14T10:05:44.557Z,3.72
2024-03-14T10:08:52.318Z,3.30
2024-03-14T10:12:05.607Z,3.25
2024-03-14T10:15:14.308Z,3.08
2024-03-14T10:18:19.827Z,2.97
2024-03-14T10:21:23.480Z,3.80
2024-03-14T10:24:29.462Z,2.92
2024-03-14T10:27:33.998Z,3.03
2024-03-14T10:30:38.722Z,2.80
2024-03-14T10:33:42.353Z,3.20
2024-03-14T10:36:46.340Z,3.08
2024-03-14T10:39:55.471Z,3.08
2024-03-14T10:42:59.115Z,3.28
2024-03-14T10:46:04.854Z,3.05
2024-03-14T10:49:08.328Z,3.47
2024-03-14T10:52:15.401Z,3.33
2024-03-14T10:55:22.744Z,2.92
2024-03-14T10:58:27.963Z,3.17
2024-03-14T11:01:33.368Z,2.95
2024-03-14T11:04:36.690Z,3.07
2024-03-14T11:07:42.656Z,3.13
2024-03-14T11:10:50.808Z,3.55
2024-03-14T11:14:04.176Z,3.13
2024-03-14T11:17:11.951Z,3.00
2024-03-14T11:20:21.091Z,2.57
2024-03-14T11:23:27.634Z,2.90
2024-03-14T11:26:36.359Z,3.15
2024-03-14T11:29:40.539Z,3.40
2024-03-14T11:32:55.746Z,3.45
2024-03-14T11:36:00.395Z,3.67
2024-03-14T11:39:28.031Z,3.45
2024-03-14T11:42:32.270Z,3.08
2024-03-14T11:45:38.174Z,3.75
2024-03-14T11:48:44.493Z,3.40
2024-03-14T11:51:49.456Z,3.53
2024-03-14T11:54:57.637Z,3.42
2024-03-14T11:58:04.547Z,3.40
2024-03-14T12:01:09.805Z,3.95
2024-03-14T12:04:15.318Z,3.73
2024-03-14T12:07:19.599Z,3.97
2024-03-14T12:10:25.873Z,3.58
2024-03-14T12:13:30.215Z,3.90
2024-03-14T12:16:33.816Z,3.05
2024-03-14T12:19:36.680Z,3.28
2024-03-14T12:22:47.472Z,3.27
2024-03-14T12:25:56.160Z,3.40
2024-03-14T12:29:00.301Z,3.33
2024-03-14T12:32:05.638Z,3.60
2024-03-14T12:35:14.461Z,3.75
2024-03-14T12:38:24.564Z,3.70
2024-03-14T12:41:28.413Z,3.85
2024-03-14T12:44:31.390Z,3.35
2024-03-14T12:47:35.219Z,4.07
2024-03-14T12:50:43.504Z,3.78
2024-03-14T12:54:02.032Z,3.67
2024-03-14T12:57:07.245Z,3.75
2024-03-14T13:00:19.059Z,3.08
2024-03-14T13:03:25.135Z,4.30
2024-03-14T13:06:30.927Z,4.17
2024-03-14T13:09:34.254Z,3.10
2024-03-14T13:12:39.814Z,3.92
2024-03-14T13:15:42.926Z,3.72
2024-03-14T13:18:52.149Z,3.50
2024-03-14T13:21:55.421Z,3.53
2024-03-14T13:24:59.208Z,3.13
2024-03-14T13:28:02.468Z,3.78
2024-03-14T13:31:05.573Z,3.42
2024-03-14T13:34:09.902Z,3.50
2024-03-14T13:37:13.943Z,3.30
2024-03-14T13:40:21.124Z,2.97
2024-03-14T13:43:25.460Z,3.47
2024-03-14T13:46:32.899Z,2.60
2024-03-14T13:49:39.205Z,3.25
2024-03-14T13:52:44.893Z,2.97
2024-03-14T13:55:48.753Z,3.40
2024-03-14T13:58:53.532Z,3.55
2024-03-14T14:01:57.773Z,3.90
2024-03-14T14:05:01.392Z,4.28
2024-03-14T14:08:04.566Z,3.60
2024-03-14T14:11:08.492Z,3.33
2024-03-14T14:14:15.583Z,3.35
2024-03-14T14:17:18.592Z,2.95
2024-03-14T14:20:24.661Z,3.63
2024-03-14T14:23:29.512Z,3.77
2024-03-14T14:26:32.514Z,3.87
2024-03-14T14:29:35.669Z,3.92
2024-03-14T14:32:38.733Z,3.15
2024-03-14T14:35:45.683Z,10.02
2024-03-14T14:38:52.057Z,3.80
2024-03-14T14:41:55.008Z,3.50
2024-03-14T14:44:57.871Z,3.80
2024-03-14T14:48:02.269Z,3.90
2024-03-14T14:51:05.381Z,3.47
2024-03-14T14:54:09.764Z,3.80
2024-03-14T14:57:12.896Z,4.00
2024-03-14T15:00:17.166Z,4.00
2024-03-14T15:03:23.454Z,2.90
2024-03-14T15:06:27.011Z,3.10
2024-03-14T15:09:30.231Z,3.35
2024-03-14T15:12:33.353Z,4.30
2024-03-14T15:15:37.255Z,3.88
2024-03-14T15:18:41.702Z,3.25
2024-03-14T15:21:48.292Z,3.78
2024-03-14T15:24:51.210Z,3.53
2024-03-14T15:27:54.803Z,3.47
2024-03-14T15:30:58.471Z,3.45
2024-03-14T15:34:03.590Z,3.92
2024-03-14T15:37:09.273Z,3.42
2024-03-14T15:40:15.400Z,3.87
2024-03-14T15:43:19.215Z,3.90
2024-03-14T15:46:23.908Z,3.55
2024-03-14T15:49:28.645Z,4.57
2024-03-14T15:52:31.502Z,3.50
2024-03-14T15:55:34.838Z,3.80
2024-03-14T15:58:38.133Z,4.07
2024-03-14T16:01:41.338Z,4.90
2024-03-14T16:04:46.951Z,4.97
2024-03-14T16:07:51.924Z,4.95
2024-03-14T16:10:56.009Z,4.53
2024-03-14T16:13:59.166Z,4.90
2024-03-14T16:17:02.534Z,4.72
2024-03-14T16:20:31.755Z,4.90
2024-03-14T16:23:38.954Z,5.35
2024-03-14T16:26:42.313Z,4.78
2024-03-14T16:29:45.588Z,6.10
2024-03-14T16:32:48.763Z,6.78
2024-03-14T16:35:52.459Z,7.25
2024-03-14T16:38:56.020Z,7.85
2024-03-14T16:42:02.631Z,8.23
2024-03-14T16:45:08.792Z,7.33
2024-03-14T16:48:11.868Z,7.63
2024-03-14T16:51:14.998Z,7.40
2024-03-14T16:54:23.283Z,7.57
2024-03-14T16:57:26.774Z,7.90
2024-03-14T17:00:33.218Z,6.50
2024-03-14T17:03:36.733Z,6.00
2024-03-14T17:06:39.746Z,6.10
2024-03-14T17:09:43.912Z,6.93
2024-03-14T17:12:47.583Z,6.30
2024-03-14T17:15:50.452Z,7.10
2024-03-14T17:18:53.866Z,7.35
2024-03-14T17:21:57.092Z,7.85
2024-03-14T17:25:00.818Z,8.63
2024-03-14T17:28:05.540Z,8.33
2024-03-14T17:31:08.625Z,9.00
2024-03-14T17:34:12.071Z,9.57
2024-03-14T17:37:16.362Z,9.20
2024-03-14T17:40:23.037Z,8.90
2024-03-14T17:43:25.860Z,10.60
2024-03-14T17:46:29.249Z,14.77
2024-03-14T17:49:32.873Z,16.77
2024-03-14T17:52:35.776Z,17.70
2024-03-14T17:55:38.725Z,13.98
2024-03-14T17:58:42.003Z,13.70
2024-03-14T18:01:45.160Z,11.93
2024-03-14T18:04:52.410Z,13.60
2024-03-14T18:07:56.419Z,14.80
2024-03-14T18:11:02.712Z,13.25
2024-03-14T18:14:06.042Z,11.77
2024-03-14T18:17:09.049Z,9.50
2024-03-14T18:20:15.182Z,11.25
2024-03-14T18:23:18.118Z,10.32
2024-03-14T18:26:21.046Z,9.50
2024-03-14T18:29:23.877Z,9.33
2024-03-14T18:32:27.452Z,8.07
2024-03-14T18:35:31.496Z,9.05
2024-03-14T18:38:34.436Z,10.10
2024-03-14T18:41:37.292Z,10.18
2024-03-14T18:44:48.523Z,10.00
2024-03-14T18:47:51.954Z,11.10
2024-03-14T18:50:55.987Z,10.88
2024-03-14T18:53:59.337Z,10.98
2024-03-14T18:57:03.491Z,13.10
2024-03-14T19:00:14.623Z,10.10
2024-03-14T19:03:23.544Z,9.07
2024-03-14T19:06:28.349Z,8.88
2024-03-14T19:09:34.955Z,7.38
2024-03-14T19:12:38.392Z,8.93
2024-03-14T19:15:44.795Z,8.97
2024-03-14T19:18:49.413Z,8.73
2024-03-14T19:21:52.724Z,8.65
2024-03-14T19:24:55.812Z,8.80
2024-03-14T19:27:59.134Z,10.48
2024-03-14T19:31:03.160Z,8.83
2024-03-14T19:34:08.388Z,8.80
2024-03-14T19:37:13.465Z,6.55
2024-03-14T19:40:17.948Z,6.97
2024-03-14T19:43:22.016Z,7.68
2024-03-14T19:46:25.697Z,7.67
2024-03-14T19:49:29.454Z,6.43
2024-03-14T19:52:32.654Z,6.65
2024-03-14T19:55:36.598Z,6.93
2024-03-14T19:58:42.849Z,6.15
2024-03-14T20:01:46.049Z,8.40
2024-03-14T20:04:50.396Z,8.27
2024-03-14T20:07:55.022Z,9.90
2024-03-14T20:11:00.899Z,10.98
2024-03-14T20:14:04.164Z,12.68
2024-03-14T20:17:07.429Z,9.80
2024-03-14T20:20:13.552Z,11.13
2024-03-14T20:23:17.440Z,11.23
2024-03-14T20:26:22.376Z,9.98
2024-03-14T20:29:25.657Z,8.50
2024-03-14T20:32:28.650Z,9.73
2024-03-14T20:35:33.450Z,8.97
2024-03-14T20:38:36.259Z,9.27
2024-03-14T20:41:39.368Z,8.75
2024-03-14T20:44:45.657Z,9.80
2024-03-14T20:47:49.257Z,10.33
2024-03-14T20:50:52.390Z,8.70
2024-03-14T20:53:56.197Z,9.77
2024-03-14T20:56:59.680Z,8.68
2024-03-14T21:00:02.850Z,8.77
2024-03-14T21:03:05.787Z,7.27
2024-03-14T21:06:08.702Z,6.97
2024-03-14T21:09:13.597Z,7.28
2024-03-14T21:12:16.894Z,6.85
2024-03-14T21:15:19.833Z,7.00
2024-03-14T21:18:23.667Z,7.43
2024-03-14T21:21:26.883Z,7.40
2024-03-14T21:24:30.128Z,7.22
2024-03-14T21:27:33.006Z,7.40
2024-03-14T21:30:38.676Z,6.18
2024-03-14T21:33:42.601Z,7.57
2024-03-14T21:36:45.780Z,7.03
2024-03-14T21:39:49.119Z,7.38
2024-03-14T21:42:53.356Z,6.47
2024-03-14T21:45:56.504Z,7.57
2024-03-14T21:49:00.840Z,8.00
2024-03-14T21:52:05.698Z,7.57
2024-03-14T21:55:09.267Z,7.60
2024-03-14T21:58:12.787Z,6.97
2024-03-14T22:01:15.959Z,7.68
2024-03-14T22:04:18.882Z,7.07
2024-03-14T22:07:24.010Z,6.50
2024-03-14T22:10:27.618Z,8.00
2024-03-14T22:13:30.484Z,7.50
2024-03-14T22:16:33.705Z,6.85
2024-03-14T22:19:39.766Z,7.13
2024-03-14T22:22:43.097Z,8.13
2024-03-14T22:25:46.013Z,7.60
2024-03-14T22:28:49.170Z,7.55
2024-03-14T22:31:55.231Z,7.05
2024-03-14T22:34:58.642Z,7.23
2024-03-14T22:38:02.683Z,6.93
2024-03-14T22:41:09.383Z,7.45
2024-03-14T22:44:14.153Z,6.70
2024-03-14T22:47:19.692Z,6.75
2024-03-14T22:50:22.895Z,6.80
2024-03-14T22:53:27.145Z,7.50
2024-03-14T22:56:29.945Z,7.93
2024-03-14T22:59:33.094Z,8.15
2024-03-14T23:02:35.833Z,8.02
2024-03-14T23:05:41.979Z,7.63
2024-03-14T23:08:45.418Z,7.43
2024-03-14T23:11:50.029Z,7.53
2024-03-14T23:14:53.228Z,9.23
2024-03-14T23:17:56.578Z,8.82
2024-03-14T23:20:59.758Z,9.17
2024-03-14T23:24:05.540Z,8.10
2024-03-14T23:27:10.155Z,7.55
2024-03-14T23:30:13.556Z,7.13
2024-03-14T23:33:17.752Z,6.00
2024-03-14T23:36:20.967Z,7.03
2024-03-14T23:39:27.226Z,6.47
2024-03-14T23:42:43.528Z,5.72
2024-03-14T23:45:46.760Z,6.63
2024-03-14T23:48:49.860Z,5.85
2024-03-14T23:51:53.099Z,5.23
2024-03-14T23:54:56.431Z,6.73
2024-03-14T23:58:00.249Z,7.40
